createdAt,value
2019-01-25T00:02:16.551Z,102.97
2019-01-25T00:05:07.998Z,114.93
2019-01-25T00:07:58.859Z,109.67
2019-01-25T00:10:49.165Z,115.30
2019-01-25T00:13:39.486Z,134.47
2019-01-25T00:16:29.794Z,382.77
2019-01-25T00:19:20.368Z,113.07
2019-01-25T00:22:10.488Z,99.43
2019-01-25T00:25:02.389Z,206.47
2019-01-25T00:27:53.178Z,112.33
2019-01-25T00:30:43.473Z,213.10
2019-01-25T00:33:33.771Z,139.07
2019-01-25T00:36:23.797Z,120.90
2019-01-25T00:39:13.837Z,122.90
2019-01-25T00:42:04.869Z,129.40
2019-01-25T00:44:55.142Z,94.93
2019-01-25T00:47:45.361Z,110.37
2019-01-25T00:50:35.841Z,121.23
2019-01-25T00:53:26.241Z,93.30
2019-01-25T00:56:16.925Z,111.57
2019-01-25T00:59:07.353Z,109.53
2019-01-25T01:01:57.665Z,123.97
2019-01-25T01:04:47.932Z,135.87
2019-01-25T01:07:37.942Z,127.63
2019-01-25T01:10:28.238Z,112.43
2019-01-25T01:13:18.238Z,120.77
2019-01-25T01:16:08.661Z,127.03
2019-01-25T01:18:59.010Z,119.97
2019-01-25T01:21:49.587Z,122.50
2019-01-25T01:24:39.874Z,118.53
2019-01-25T01:27:30.582Z,125.03
2019-01-25T01:30:24.953Z,116.73
2019-01-25T01:33:15.521Z,102.67
2019-01-25T01:36:05.602Z,108.10
2019-01-25T01:38:55.850Z,117.47
2019-01-25T01:41:45.889Z,126.57
2019-01-25T01:44:37.410Z,125.60
2019-01-25T01:47:27.597Z,138.00
2019-01-25T01:50:18.522Z,125.73
2019-01-25T01:53:08.535Z,138.33
2019-01-25T01:55:58.562Z,161.77
2019-01-25T01:58:48.650Z,172.43
2019-01-25T02:01:39.069Z,157.83
2019-01-25T02:04:29.442Z,159.23
2019-01-25T02:07:19.403Z,167.57
2019-01-25T02:10:12.634Z,200.13
2019-01-25T02:13:03.246Z,171.43
2019-01-25T02:15:53.541Z,173.17
2019-01-25T02:18:43.957Z,161.23
2019-01-25T02:21:33.862Z,185.30
2019-01-25T02:24:23.914Z,186.03
2019-01-25T02:27:14.333Z,186.60
2019-01-25T02:30:05.090Z,174.50
2019-01-25T02:32:55.467Z,187.23
2019-01-25T02:35:45.945Z,185.60
2019-01-25T02:38:36.860Z,192.43
2019-01-25T02:41:26.918Z,194.47
2019-01-25T02:44:17.070Z,160.50
2019-01-25T02:47:07.127Z,166.73
2019-01-25T02:49:57.246Z,378.83
2019-01-25T02:52:47.467Z,235.87
2019-01-25T02:55:37.433Z,239.07
2019-01-25T02:58:27.678Z,293.33
2019-01-25T03:01:17.821Z,171.30
2019-01-25T03:04:08.038Z,190.33
2019-01-25T03:06:58.254Z,168.00
2019-01-25T03:09:48.309Z,254.13
2019-01-25T03:12:38.311Z,196.80
2019-01-25T03:15:28.527Z,266.80
2019-01-25T03:18:19.260Z,317.67
2019-01-25T03:21:10.014Z,160.13
2019-01-25T03:24:00.365Z,216.13
2019-01-25T03:26:50.774Z,150.43
2019-01-25T03:29:41.194Z,184.00
2019-01-25T03:32:31.667Z,234.67
2019-01-25T03:35:23.136Z,155.20
2019-01-25T03:38:13.174Z,227.60
2019-01-25T03:41:03.362Z,173.07
2019-01-25T03:43:53.378Z,150.83
2019-01-25T03:46:43.524Z,283.77
2019-01-25T03:49:33.466Z,167.53
2019-01-25T03:52:23.447Z,154.00
2019-01-25T03:55:14.074Z,244.63
2019-01-25T03:58:04.223Z,172.93
2019-01-25T04:00:54.746Z,245.23
2019-01-25T04:03:45.113Z,183.17
2019-01-25T04:06:35.382Z,161.97
2019-01-25T04:09:25.736Z,171.07
2019-01-25T04:12:15.781Z,428.43
2019-01-25T04:15:08.372Z,180.43
2019-01-25T04:17:58.421Z,215.43
2019-01-25T04:20:48.430Z,265.17
2019-01-25T04:23:38.501Z,204.77
2019-01-25T04:26:28.555Z,314.20
2019-01-25T04:29:18.906Z,190.40
2019-01-25T04:32:09.210Z,177.57
2019-01-25T04:34:59.263Z,186.60
2019-01-25T04:37:49.673Z,261.20
2019-01-25T04:40:40.038Z,159.70
2019-01-25T04:43:29.978Z,181.03
2019-01-25T04:46:20.022Z,181.43
2019-01-25T04:49:10.294Z,212.00
2019-01-25T04:52:00.164Z,178.53
2019-01-25T04:54:50.186Z,155.73
2019-01-25T04:57:40.621Z,221.10
2019-01-25T05:00:31.026Z,167.63
2019-01-25T05:03:21.378Z,331.97
2019-01-25T05:06:14.609Z,295.90
2019-01-25T05:09:07.898Z,396.73
2019-01-25T05:11:58.358Z,653.13
2019-01-25T05:14:48.639Z,540.77
2019-01-25T05:17:38.962Z,851.67
2019-01-25T05:20:29.213Z,633.53
2019-01-25T05:23:19.590Z,581.03
2019-01-25T05:26:10.305Z,406.77
2019-01-25T05:29:00.595Z,694.33
2019-01-25T05:31:50.589Z,302.90
2019-01-25T05:34:41.451Z,356.17
2019-01-25T05:37:31.703Z,497.93
2019-01-25T05:40:24.109Z,276.13
2019-01-25T05:43:14.059Z,495.03
2019-01-25T05:46:04.329Z,527.37
2019-01-25T05:48:54.798Z,615.90
2019-01-25T05:51:45.973Z,620.53
2019-01-25T05:54:36.061Z,659.03
2019-01-25T05:57:26.510Z,603.33
2019-01-25T06:00:25.070Z,628.83
2019-01-25T06:03:16.158Z,460.67
2019-01-25T06:06:07.702Z,481.13
2019-01-25T06:08:57.985Z,289.50
2019-01-25T06:11:48.466Z,474.90
2019-01-25T06:14:38.422Z,261.57
2019-01-25T06:17:28.634Z,198.13
2019-01-25T06:20:18.705Z,411.90
2019-01-25T06:23:09.326Z,262.97
2019-01-25T06:26:00.362Z,252.23
2019-01-25T06:28:53.823Z,249.27
2019-01-25T06:31:44.065Z,191.13
2019-01-25T06:34:34.154Z,187.90
2019-01-25T06:37:24.298Z,229.50
2019-01-25T06:40:15.099Z,281.10
2019-01-25T06:43:05.520Z,243.63
2019-01-25T06:45:55.445Z,185.50
2019-01-25T06:48:45.697Z,197.37
2019-01-25T06:51:36.025Z,203.57
2019-01-25T06:54:26.254Z,215.43
2019-01-25T06:57:50.998Z,178.03
2019-01-25T07:00:46.900Z,168.33
2019-01-25T07:03:36.763Z,183.97
2019-01-25T07:06:27.077Z,215.33
2019-01-25T07:09:17.274Z,172.03
2019-01-25T07:12:07.543Z,190.20
2019-01-25T07:14:58.114Z,180.33
2019-01-25T07:17:48.490Z,168.83
2019-01-25T07:20:39.026Z,207.47
2019-01-25T07:23:29.431Z,188.00
2019-01-25T07:26:19.402Z,186.93
2019-01-25T07:29:09.699Z,193.93
2019-01-25T07:32:00.361Z,196.50
2019-01-25T07:34:50.556Z,196.63
2019-01-25T07:37:41.254Z,208.13
2019-01-25T07:40:31.442Z,209.40
2019-01-25T07:43:22.177Z,204.47
2019-01-25T07:46:12.378Z,195.70
2019-01-25T07:49:02.802Z,202.20
2019-01-25T07:51:52.950Z,212.17
2019-01-25T07:54:43.257Z,229.10
2019-01-25T07:57:33.246Z,231.03
2019-01-25T08:00:23.393Z,245.93
2019-01-25T08:03:13.383Z,223.60
2019-01-25T08:06:03.818Z,220.47
2019-01-25T08:08:54.225Z,224.63
2019-01-25T08:11:45.171Z,235.70
2019-01-25T08:14:35.439Z,204.53
2019-01-25T08:17:25.534Z,197.93
2019-01-25T08:20:15.824Z,212.63
2019-01-25T08:23:06.154Z,196.37
2019-01-25T08:25:56.362Z,203.03
2019-01-25T08:28:46.406Z,205.60
2019-01-25T08:31:36.809Z,201.20
2019-01-25T08:34:26.904Z,197.83
2019-01-25T08:37:17.331Z,206.20
2019-01-25T08:40:09.420Z,197.63
2019-01-25T08:42:59.804Z,199.27
2019-01-25T08:45:49.992Z,182.57
2019-01-25T08:48:40.846Z,177.67
2019-01-25T08:51:31.406Z,178.63
2019-01-25T08:54:21.782Z,180.63
2019-01-25T08:57:12.088Z,175.47
2019-01-25T09:00:02.363Z,163.23
2019-01-25T09:02:52.449Z,166.77
2019-01-25T09:05:42.658Z,176.53
2019-01-25T09:08:32.830Z,148.17
2019-01-25T09:11:23.195Z,166.13
2019-01-25T09:14:13.443Z,169.30
2019-01-25T09:17:03.710Z,167.53
2019-01-25T09:19:54.037Z,150.13
2019-01-25T09:22:44.058Z,159.73
2019-01-25T09:25:34.235Z,144.60
2019-01-25T09:28:24.449Z,140.27
2019-01-25T09:31:14.762Z,139.27
2019-01-25T09:34:06.406Z,154.50
2019-01-25T09:36:56.709Z,143.73
2019-01-25T09:39:47.466Z,147.13
2019-01-25T09:42:37.602Z,161.53
2019-01-25T09:45:27.947Z,172.03
2019-01-25T09:48:18.293Z,154.90
2019-01-25T09:51:08.705Z,133.57
2019-01-25T09:53:59.023Z,142.63
2019-01-25T09:56:49.110Z,136.87
2019-01-25T09:59:39.425Z,137.80
2019-01-25T10:02:29.965Z,140.10
2019-01-25T10:05:20.345Z,146.77
2019-01-25T10:08:10.393Z,140.17
2019-01-25T10:11:00.467Z,148.13
2019-01-25T10:13:50.854Z,131.97
2019-01-25T10:16:41.457Z,145.37
2019-01-25T10:19:31.894Z,132.37
2019-01-25T10:22:22.170Z,132.93
2019-01-25T10:25:12.248Z,128.60
2019-01-25T10:28:03.066Z,132.53
2019-01-25T10:30:54.261Z,125.53
2019-01-25T10:33:44.472Z,121.60
2019-01-25T10:36:34.346Z,119.90
2019-01-25T10:39:24.705Z,117.80
2019-01-25T10:42:15.217Z,109.83
2019-01-25T10:45:09.062Z,111.03
2019-01-25T10:47:59.559Z,105.80
2019-01-25T10:50:49.888Z,101.47
2019-01-25T10:53:40.126Z,106.00
2019-01-25T10:56:30.407Z,109.00
2019-01-25T10:59:20.794Z,94.97
2019-01-25T11:02:11.087Z,90.00
2019-01-25T11:05:01.237Z,99.50
2019-01-25T11:07:51.492Z,89.73
2019-01-25T11:10:41.525Z,89.53
2019-01-25T11:13:31.869Z,84.97
2019-01-25T11:16:21.941Z,92.83
2019-01-25T11:19:12.114Z,78.77
2019-01-25T11:22:02.450Z,81.57
2019-01-25T11:24:52.602Z,65.83
2019-01-25T11:27:42.925Z,58.27
2019-01-25T11:30:35.394Z,66.43
2019-01-25T11:33:25.554Z,57.90
2019-01-25T11:36:15.667Z,54.00
2019-01-25T11:39:09.718Z,53.87
2019-01-25T11:42:00.095Z,51.87
2019-01-25T11:44:50.083Z,50.10
2019-01-25T11:47:40.365Z,50.93
2019-01-25T11:50:30.362Z,51.77
2019-01-25T11:53:20.316Z,54.60
2019-01-25T11:56:11.125Z,50.70
2019-01-25T11:59:01.762Z,53.73
2019-01-25T12:01:52.466Z,57.03
2019-01-25T12:04:42.422Z,58.80
2019-01-25T12:07:32.452Z,69.83
2019-01-25T12:10:24.948Z,108.00
2019-01-25T12:13:16.240Z,108.77
2019-01-25T12:16:06.526Z,74.87
2019-01-25T12:18:56.898Z,79.80
2019-01-25T12:21:46.889Z,68.80
2019-01-25T12:24:37.221Z,59.17
2019-01-25T12:27:27.662Z,62.97
2019-01-25T12:30:30.148Z,54.60
2019-01-25T12:33:20.804Z,63.70
2019-01-25T12:36:10.919Z,55.80
2019-01-25T12:39:00.974Z,69.13
2019-01-25T12:41:52.170Z,64.57
2019-01-25T12:44:42.746Z,65.40
2019-01-25T12:47:32.817Z,63.10
2019-01-25T12:50:29.051Z,66.53
2019-01-25T12:53:21.061Z,63.70
2019-01-25T12:56:11.287Z,70.60
2019-01-25T12:59:01.534Z,66.83
2019-01-25T13:01:51.952Z,65.37
2019-01-25T13:04:42.322Z,65.10
2019-01-25T13:07:32.430Z,72.73
2019-01-25T13:10:23.283Z,70.50
2019-01-25T13:13:13.401Z,74.63
2019-01-25T13:16:03.477Z,71.20
2019-01-25T13:18:54.242Z,66.40
2019-01-25T13:21:44.227Z,74.70
2019-01-25T13:24:34.479Z,74.90
2019-01-25T13:27:24.854Z,71.77
2019-01-25T13:30:19.347Z,78.63
2019-01-25T13:33:11.010Z,77.37
2019-01-25T13:36:01.799Z,74.97
2019-01-25T13:38:52.037Z,73.03
2019-01-25T13:41:42.237Z,76.47
2019-01-25T13:44:32.210Z,77.43
2019-01-25T13:47:22.434Z,73.03
2019-01-25T13:50:15.450Z,79.70
2019-01-25T13:53:05.878Z,68.43
2019-01-25T13:55:56.781Z,74.23
2019-01-25T13:58:46.985Z,74.03
2019-01-25T14:01:37.258Z,70.03
2019-01-25T14:04:27.591Z,70.70
2019-01-25T14:07:21.034Z,70.47
2019-01-25T14:10:10.934Z,71.07
2019-01-25T14:13:00.933Z,66.13
2019-01-25T14:15:51.018Z,72.87
2019-01-25T14:18:44.944Z,72.57
2019-01-25T14:21:32.712Z,67.57
2019-01-25T14:24:22.942Z,69.27
2019-01-25T14:27:13.178Z,71.60
2019-01-25T14:30:05.395Z,78.50
2019-01-25T14:32:55.590Z,71.97
2019-01-25T14:35:45.728Z,74.77
2019-01-25T14:38:36.733Z,69.30
2019-01-25T14:41:26.834Z,76.20
2019-01-25T14:44:16.911Z,82.53
2019-01-25T14:47:07.061Z,75.90
2019-01-25T14:49:57.070Z,80.10
2019-01-25T14:52:47.358Z,80.57
2019-01-25T14:55:37.629Z,82.50
2019-01-25T14:58:27.783Z,79.13
2019-01-25T15:01:18.087Z,82.33
2019-01-25T15:04:08.555Z,75.93
2019-01-25T15:06:58.577Z,86.83
2019-01-25T15:09:48.891Z,83.77
2019-01-25T15:12:39.178Z,83.27
2019-01-25T15:15:29.563Z,81.40
2019-01-25T15:18:19.553Z,83.60
2019-01-25T15:21:09.562Z,82.13
2019-01-25T15:23:59.698Z,78.13
2019-01-25T15:26:49.886Z,77.17
2019-01-25T15:29:40.794Z,81.67
2019-01-25T15:32:31.085Z,68.07
2019-01-25T15:35:21.833Z,80.97
2019-01-25T15:38:11.958Z,72.37
2019-01-25T15:41:03.155Z,73.07
2019-01-25T15:43:53.333Z,67.77
2019-01-25T15:46:43.338Z,70.03
2019-01-25T15:49:33.329Z,68.87
2019-01-25T15:52:23.373Z,74.40
2019-01-25T15:55:14.439Z,78.47
2019-01-25T15:58:05.022Z,72.20
2019-01-25T16:00:55.241Z,74.83
2019-01-25T16:03:45.866Z,68.83
2019-01-25T16:06:35.826Z,72.53
2019-01-25T16:09:26.206Z,70.50
2019-01-25T16:12:16.515Z,71.23
2019-01-25T16:15:08.943Z,65.23
2019-01-25T16:17:59.107Z,73.73
2019-01-25T16:20:49.153Z,67.77
2019-01-25T16:23:40.003Z,67.17
2019-01-25T16:26:29.962Z,67.80
2019-01-25T16:29:20.137Z,77.07
2019-01-25T16:32:10.686Z,69.23
2019-01-25T16:35:00.819Z,70.37
2019-01-25T16:37:50.974Z,62.90
2019-01-25T16:40:42.059Z,70.63
2019-01-25T16:43:31.929Z,73.53
2019-01-25T16:46:22.150Z,71.37
2019-01-25T16:49:12.472Z,69.53
2019-01-25T16:52:02.474Z,64.97
2019-01-25T16:54:52.805Z,63.70
2019-01-25T16:57:43.085Z,66.30
2019-01-25T17:00:36.065Z,69.97
2019-01-25T17:03:26.582Z,60.67
2019-01-25T17:06:16.917Z,63.47
2019-01-25T17:09:08.422Z,53.00
2019-01-25T17:11:58.789Z,58.97
2019-01-25T17:14:49.177Z,64.03
2019-01-25T17:17:39.257Z,60.67
2019-01-25T17:20:29.770Z,63.67
2019-01-25T17:23:19.850Z,63.20
2019-01-25T17:26:09.982Z,64.47
2019-01-25T17:29:00.034Z,61.30
2019-01-25T17:31:50.451Z,65.57
2019-01-25T17:34:40.975Z,70.07
2019-01-25T17:37:31.191Z,71.73
2019-01-25T17:40:23.775Z,69.60
2019-01-25T17:43:13.753Z,70.73
2019-01-25T17:46:03.844Z,76.83
2019-01-25T17:48:53.771Z,78.00
2019-01-25T17:51:44.053Z,76.77
2019-01-25T17:54:34.053Z,70.93
2019-01-25T17:57:24.421Z,69.47
2019-01-25T18:00:18.273Z,71.70
2019-01-25T18:03:08.354Z,73.93
2019-01-25T18:05:58.648Z,74.70
2019-01-25T18:08:48.719Z,74.87
2019-01-25T18:11:39.246Z,86.00
2019-01-25T18:14:29.341Z,85.10
2019-01-25T18:17:21.061Z,89.47
2019-01-25T18:20:14.101Z,85.47
2019-01-25T18:23:04.243Z,92.27
2019-01-25T18:26:07.765Z,99.30
2019-01-25T18:29:14.487Z,104.13
2019-01-25T18:32:04.747Z,102.43
2019-01-25T18:34:54.749Z,113.83
2019-01-25T18:37:45.062Z,116.53
2019-01-25T18:40:35.443Z,105.33
2019-01-25T18:43:25.938Z,114.60
2019-01-25T18:46:16.318Z,105.67
2019-01-25T18:49:06.598Z,106.77
2019-01-25T18:51:56.837Z,103.57
2019-01-25T18:54:47.418Z,105.53
2019-01-25T18:57:37.862Z,94.60
2019-01-25T19:00:28.213Z,91.50
2019-01-25T19:03:18.490Z,101.03
2019-01-25T19:06:08.818Z,97.37
2019-01-25T19:08:59.381Z,95.33
2019-01-25T19:11:49.813Z,91.33
2019-01-25T19:14:40.034Z,114.23
2019-01-25T19:17:30.518Z,117.97
2019-01-25T19:20:21.506Z,109.53
2019-01-25T19:23:12.038Z,115.43
2019-01-25T19:26:02.830Z,112.03
2019-01-25T19:28:53.210Z,114.97
2019-01-25T19:31:44.038Z,111.57
2019-01-25T19:34:34.142Z,148.83
2019-01-25T19:37:24.242Z,120.60
2019-01-25T19:40:16.170Z,130.17
2019-01-25T19:43:07.781Z,138.23
2019-01-25T19:45:58.066Z,123.73
2019-01-25T19:48:48.594Z,130.00
2019-01-25T19:51:38.966Z,127.17
2019-01-25T19:54:29.077Z,227.47
2019-01-25T19:57:19.074Z,195.77
2019-01-25T20:00:22.925Z,129.10
2019-01-25T20:03:13.078Z,150.97
2019-01-25T20:06:03.754Z,117.63
2019-01-25T20:08:54.043Z,105.57
2019-01-25T20:11:44.577Z,123.97
2019-01-25T20:14:35.097Z,111.87
2019-01-25T20:17:25.571Z,128.70
2019-01-25T20:20:19.106Z,134.17
2019-01-25T20:23:09.145Z,164.73
2019-01-25T20:25:59.390Z,155.73
2019-01-25T20:28:49.467Z,202.53
2019-01-25T20:31:40.634Z,178.73
2019-01-25T20:34:30.918Z,267.67
2019-01-25T20:37:21.162Z,234.63
2019-01-25T20:40:13.613Z,151.93
2019-01-25T20:43:04.878Z,129.40
2019-01-25T20:45:55.730Z,169.23
2019-01-25T20:48:46.125Z,144.73
2019-01-25T20:51:36.306Z,136.90
2019-01-25T20:54:26.570Z,164.13
2019-01-25T20:57:17.182Z,129.30
2019-01-25T21:00:12.195Z,159.80
2019-01-25T21:03:03.109Z,127.17
2019-01-25T21:05:53.205Z,97.70
2019-01-25T21:08:43.682Z,118.07
2019-01-25T21:11:34.157Z,128.77
2019-01-25T21:14:24.144Z,158.57
2019-01-25T21:17:14.219Z,160.93
2019-01-25T21:20:05.814Z,166.60
2019-01-25T21:22:55.875Z,113.97
2019-01-25T21:25:46.142Z,138.90
2019-01-25T21:28:36.671Z,125.97
2019-01-25T21:31:26.914Z,117.57
2019-01-25T21:34:17.661Z,107.47
2019-01-25T21:37:08.001Z,127.00
2019-01-25T21:39:58.986Z,126.63
2019-01-25T21:42:49.213Z,120.40
2019-01-25T21:45:43.186Z,132.43
2019-01-25T21:48:30.910Z,109.73
2019-01-25T21:51:21.696Z,84.83
2019-01-25T21:54:11.650Z,108.17
2019-01-25T21:57:02.018Z,103.57
2019-01-25T21:59:52.022Z,85.07
2019-01-25T22:02:42.126Z,83.07
2019-01-25T22:05:32.393Z,70.93
2019-01-25T22:08:22.588Z,80.90
2019-01-25T22:11:12.910Z,61.37
2019-01-25T22:14:03.198Z,79.97
2019-01-25T22:16:53.350Z,82.37
2019-01-25T22:19:43.903Z,68.20
2019-01-25T22:22:34.206Z,71.70
2019-01-25T22:25:24.722Z,66.03
2019-01-25T22:28:15.526Z,67.77
2019-01-25T22:31:05.758Z,70.57
2019-01-25T22:33:55.778Z,73.53
2019-01-25T22:36:46.175Z,65.03
2019-01-25T22:39:36.751Z,71.37
2019-01-25T22:42:27.354Z,69.33
2019-01-25T22:45:21.113Z,63.17
2019-01-25T22:48:11.664Z,74.80
2019-01-25T22:51:01.933Z,72.60
2019-01-25T22:53:52.369Z,93.90
2019-01-25T22:56:42.421Z,110.40
2019-01-25T22:59:32.450Z,96.10
2019-01-25T23:02:22.641Z,94.53
2019-01-25T23:05:24.853Z,95.37
2019-01-25T23:08:15.186Z,93.50
2019-01-25T23:11:05.365Z,80.03
2019-01-25T23:13:55.357Z,70.53
2019-01-25T23:16:45.647Z,79.07
2019-01-25T23:19:35.697Z,69.40
2019-01-25T23:22:25.934Z,58.47
2019-01-25T23:25:17.369Z,65.03
2019-01-25T23:28:07.534Z,75.60
2019-01-25T23:30:57.527Z,65.70
2019-01-25T23:33:47.806Z,85.70
2019-01-25T23:36:38.238Z,68.33
2019-01-25T23:39:28.613Z,84.93
2019-01-25T23:42:18.785Z,78.60
2019-01-25T23:45:11.413Z,99.93
2019-01-25T23:48:01.553Z,74.57
2019-01-25T23:50:51.641Z,67.73
2019-01-25T23:53:41.617Z,53.97
2019-01-25T23:56:31.858Z,51.90
2019-01-25T23:59:22.713Z,60.77
